Terminal Aerodrome Forecast
Issued by NWS

Home | Current Version | Previous Version | Text Only | Print | Product List | Glossary On
Versions: 1 2 3 4 5 6 7 8 9 10 11 12 13 14
000
FTUS44 KLUB 290519
TAFCDS
TAF
KCDS 290519Z 2906/3006 35006KT P6SM SCT250
     FM291300 01015G24KT P6SM SCT080 SCT200
     FM292300 04007KT P6SM BKN070 OVC150=

USA.gov is the U.S. government's official web portal to all federal, state and local government web resources and services.